EmailTwitter


Observations de surface / France / LFBO (07630)

Régions: Québec | Canada | États-Unis | Europe | France | UK | Ailleurs
Station
Affichage
Infos & localisation pour LFBO (07630) | Aide pour décoder les METARs

Observations prises le 2018-10-15 à 15H30 UTC à TOULOUSE/BLAGNAC, FR (LFBO)

Etat du ciel: couvert.

Température: 17.0 Celsius

Point de rosée: 12.0 Celsius

Humidité relative: 72%

Vents: Nord-est à 6 km/h ou 3 noeuds.

Pression au niveau moyen de la mer: 100.90 kilopascals.

Visibilité horizontale: 6.21 milles terrestres ou 9.94 kilomètres.

Hauteur du plafond: 1189 mètres ( 3900 pieds ).

Observation METAR:

LFBO 151530Z AUTO 05003KT 360V080 9999 FEW032 OVC039 17/12 Q1009 NOSIG=